Narita, Japan
Current Conditions -  °F | °C
As of 5:00 AM on Tuesday 25 Nov 2014 (Local Time) from RJAA Reporting Station
Haze Haze  
Wind Chill: 45°   Ceiling: 15000
Heat Index: 45°   Visibility: 3mi
Dew Point: 45°   Wind: 1mph
Humidity: 100%   Direction: 270°W
Pressure: 29.94"   Gusts: NA
Location:  35.78°N, 140.32°E
Report Text: RJAA 242000Z 27001KT 5000 BR FEW020 BKN150 07/07 Q1014 TEMPO 3000 BR
Loading
Personal Weather Stations






























Interactive Weather Map New forecast layout! Learn more

10-Day Weather Forecast

Advertisements
Track Severe Weather on mobile